sensor_id;sensor_type;location;lat;lon;timestamp;P1;durP1;ratioP1;P2;durP2;ratioP2
44446;SDS011;30152;52.066;5.358;2022-10-16T07:04:45;8.57;;;2.55;;
44446;SDS011;30152;52.066;5.358;2022-10-16T07:07:10;8.18;;;2.22;;
44446;SDS011;30152;52.066;5.358;2022-10-16T07:09:36;14.38;;;4.40;;
44446;SDS011;30152;52.066;5.358;2022-10-16T07:12:02;7.53;;;2.53;;
44446;SDS011;30152;52.066;5.358;2022-10-16T07:14:28;6.47;;;2.47;;
44446;SDS011;30152;52.066;5.358;2022-10-16T07:16:55;6.95;;;2.40;;
44446;SDS011;30152;52.066;5.358;2022-10-16T07:19:20;7.72;;;2.22;;
44446;SDS011;30152;52.066;5.358;2022-10-16T07:21:46;7.65;;;2.25;;
44446;SDS011;30152;52.066;5.358;2022-10-16T07:24:13;5.75;;;1.92;;
44446;SDS011;30152;52.066;5.358;2022-10-16T07:26:41;8.15;;;2.60;;
44446;SDS011;30152;52.066;5.358;2022-10-16T07:29:26;7.63;;;1.88;;
44446;SDS011;30152;52.066;5.358;2022-10-16T07:31:52;7.15;;;1.67;;
44446;SDS011;30152;52.066;5.358;2022-10-16T07:34:18;6.13;;;2.22;;
44446;SDS011;30152;52.066;5.358;2022-10-16T07:36:50;6.25;;;2.05;;
44446;SDS011;30152;52.066;5.358;2022-10-16T07:39:16;6.32;;;2.05;;
44446;SDS011;30152;52.066;5.358;2022-10-16T07:41:42;7.45;;;2.83;;
44446;SDS011;30152;52.066;5.358;2022-10-16T07:44:07;9.30;;;2.55;;
44446;SDS011;30152;52.066;5.358;2022-10-16T07:46:33;7.40;;;2.22;;
44446;SDS011;30152;52.066;5.358;2022-10-16T07:49:00;8.95;;;2.63;;
44446;SDS011;30152;52.066;5.358;2022-10-16T07:51:26;10.32;;;2.58;;
44446;SDS011;30152;52.066;5.358;2022-10-16T07:53:52;7.60;;;2.63;;
44446;SDS011;30152;52.066;5.358;2022-10-16T07:56:19;9.32;;;2.28;;
44446;SDS011;30152;52.066;5.358;2022-10-16T07:58:47;10.23;;;2.63;;
44446;SDS011;30152;52.066;5.358;2022-10-16T08:01:15;11.25;;;2.40;;
44446;SDS011;30152;52.066;5.358;2022-10-16T08:03:42;10.27;;;2.92;;
44446;SDS011;30152;52.066;5.358;2022-10-16T08:06:08;10.55;;;3.10;;
44446;SDS011;30152;52.066;5.358;2022-10-16T08:08:34;7.15;;;1.90;;
44446;SDS011;30152;52.066;5.358;2022-10-16T08:11:00;6.72;;;2.13;;
44446;SDS011;30152;52.066;5.358;2022-10-16T08:13:28;11.23;;;2.47;;
44446;SDS011;30152;52.066;5.358;2022-10-16T08:15:54;5.15;;;1.85;;
44446;SDS011;30152;52.066;5.358;2022-10-16T08:18:20;9.82;;;2.03;;
44446;SDS011;30152;52.066;5.358;2022-10-16T08:20:46;13.10;;;2.95;;
44446;SDS011;30152;52.066;5.358;2022-10-16T08:23:12;11.15;;;2.78;;
44446;SDS011;30152;52.066;5.358;2022-10-16T08:25:38;5.95;;;2.47;;
44446;SDS011;30152;52.066;5.358;2022-10-16T08:28:06;7.65;;;1.85;;
44446;SDS011;30152;52.066;5.358;2022-10-16T08:30:33;8.00;;;2.20;;
44446;SDS011;30152;52.066;5.358;2022-10-16T08:32:59;10.20;;;3.00;;
44446;SDS011;30152;52.066;5.358;2022-10-16T08:35:25;9.35;;;2.58;;
44446;SDS011;30152;52.066;5.358;2022-10-16T08:37:51;5.47;;;1.90;;
44446;SDS011;30152;52.066;5.358;2022-10-16T08:40:26;10.75;;;2.20;;
44446;SDS011;30152;52.066;5.358;2022-10-16T08:43:04;11.48;;;2.05;;
44446;SDS011;30152;52.066;5.358;2022-10-16T08:45:56;8.13;;;2.30;;
44446;SDS011;30152;52.066;5.358;2022-10-16T08:48:47;12.23;;;2.40;;
44446;SDS011;30152;52.066;5.358;2022-10-16T08:51:18;12.77;;;2.45;;
44446;SDS011;30152;52.066;5.358;2022-10-16T08:54:01;10.05;;;2.20;;
44446;SDS011;30152;52.066;5.358;2022-10-16T08:56:28;16.67;;;2.80;;
44446;SDS011;30152;52.066;5.358;2022-10-16T08:58:54;7.28;;;2.22;;
44446;SDS011;30152;52.066;5.358;2022-10-16T09:01:20;10.48;;;2.20;;
44446;SDS011;30152;52.066;5.358;2022-10-16T09:11:45;6.63;;;1.83;;
44446;SDS011;30152;52.066;5.358;2022-10-16T09:14:27;10.45;;;2.35;;
44446;SDS011;30152;52.066;5.358;2022-10-16T09:17:48;12.52;;;2.67;;
44446;SDS011;30152;52.066;5.358;2022-10-16T09:22:44;10.23;;;2.22;;
44446;SDS011;30152;52.066;5.358;2022-10-16T09:25:11;7.50;;;2.08;;
44446;SDS011;30152;52.066;5.358;2022-10-16T09:27:39;7.70;;;1.98;;
44446;SDS011;30152;52.066;5.358;2022-10-16T09:30:12;10.07;;;2.20;;
44446;SDS011;30152;52.066;5.358;2022-10-16T09:32:39;10.48;;;2.22;;
44446;SDS011;30152;52.066;5.358;2022-10-16T09:35:09;13.32;;;3.03;;
44446;SDS011;30152;52.066;5.358;2022-10-16T09:37:38;16.08;;;2.30;;
44446;SDS011;30152;52.066;5.358;2022-10-16T09:40:05;10.38;;;3.15;;
44446;SDS011;30152;52.066;5.358;2022-10-16T09:42:32;11.40;;;2.25;;
44446;SDS011;30152;52.066;5.358;2022-10-16T09:45:00;11.48;;;2.13;;
44446;SDS011;30152;52.066;5.358;2022-10-16T09:47:26;12.45;;;2.53;;
44446;SDS011;30152;52.066;5.358;2022-10-16T09:49:56;9.23;;;1.95;;
44446;SDS011;30152;52.066;5.358;2022-10-16T09:52:24;12.20;;;2.17;;
44446;SDS011;30152;52.066;5.358;2022-10-16T09:55:12;10.65;;;2.13;;
44446;SDS011;30152;52.066;5.358;2022-10-16T09:57:52;9.10;;;2.00;;
44446;SDS011;30152;52.066;5.358;2022-10-16T10:00:19;10.88;;;2.13;;
44446;SDS011;30152;52.066;5.358;2022-10-16T10:02:46;13.20;;;2.25;;
44446;SDS011;30152;52.066;5.358;2022-10-16T10:07:52;13.52;;;2.42;;
44446;SDS011;30152;52.066;5.358;2022-10-16T10:10:28;15.63;;;2.33;;
44446;SDS011;30152;52.066;5.358;2022-10-16T10:12:55;13.35;;;2.20;;
44446;SDS011;30152;52.066;5.358;2022-10-16T10:15:21;10.80;;;2.03;;
44446;SDS011;30152;52.066;5.358;2022-10-16T10:17:50;15.35;;;2.17;;
44446;SDS011;30152;52.066;5.358;2022-10-16T10:20:27;17.77;;;3.08;;
44446;SDS011;30152;52.066;5.358;2022-10-16T10:23:19;10.60;;;2.08;;
44446;SDS011;30152;52.066;5.358;2022-10-16T10:25:52;13.07;;;2.15;;
44446;SDS011;30152;52.066;5.358;2022-10-16T10:31:35;12.38;;;2.03;;
44446;SDS011;30152;52.066;5.358;2022-10-16T10:34:28;12.45;;;2.03;;
44446;SDS011;30152;52.066;5.358;2022-10-16T10:42:40;14.63;;;2.45;;
44446;SDS011;30152;52.066;5.358;2022-10-16T10:45:16;15.02;;;2.40;;
44446;SDS011;30152;52.066;5.358;2022-10-16T10:47:52;13.85;;;2.80;;
44446;SDS011;30152;52.066;5.358;2022-10-16T11:01:14;15.90;;;2.35;;
44446;SDS011;30152;52.066;5.358;2022-10-16T11:03:59;11.00;;;1.85;;
44446;SDS011;30152;52.066;5.358;2022-10-16T11:09:20;13.95;;;2.22;;
44446;SDS011;30152;52.066;5.358;2022-10-16T11:11:59;13.07;;;2.33;;
44446;SDS011;30152;52.066;5.358;2022-10-16T11:14:52;15.35;;;2.45;;
44446;SDS011;30152;52.066;5.358;2022-10-16T11:17:38;11.18;;;1.67;;
44446;SDS011;30152;52.066;5.358;2022-10-16T11:25:32;14.35;;;2.28;;
44446;SDS011;30152;52.066;5.358;2022-10-16T11:35:59;16.92;;;2.58;;
44446;SDS011;30152;52.066;5.358;2022-10-16T11:38:39;8.75;;;1.88;;
44446;SDS011;30152;52.066;5.358;2022-10-16T11:41:16;12.30;;;1.70;;
44446;SDS011;30152;52.066;5.358;2022-10-16T11:49:30;13.68;;;2.60;;
44446;SDS011;30152;52.066;5.358;2022-10-16T11:52:05;16.52;;;1.90;;
44446;SDS011;30152;52.066;5.358;2022-10-16T11:54:45;16.08;;;1.83;;
44446;SDS011;30152;52.066;5.358;2022-10-16T11:59:57;6.30;;;1.20;;
44446;SDS011;30152;52.066;5.358;2022-10-16T12:08:45;12.45;;;1.50;;
44446;SDS011;30152;52.066;5.358;2022-10-16T12:11:23;11.65;;;1.95;;
44446;SDS011;30152;52.066;5.358;2022-10-16T12:17:01;27.55;;;3.15;;
44446;SDS011;30152;52.066;5.358;2022-10-16T12:19:31;13.60;;;1.95;;
44446;SDS011;30152;52.066;5.358;2022-10-16T12:22:01;14.35;;;1.58;;
44446;SDS011;30152;52.066;5.358;2022-10-16T12:24:38;12.32;;;1.92;;
44446;SDS011;30152;52.066;5.358;2022-10-16T12:27:06;13.32;;;1.95;;
44446;SDS011;30152;52.066;5.358;2022-10-16T12:29:53;17.92;;;2.17;;
44446;SDS011;30152;52.066;5.358;2022-10-16T12:32:27;13.30;;;1.65;;
44446;SDS011;30152;52.066;5.358;2022-10-16T12:35:01;11.30;;;1.63;;
44446;SDS011;30152;52.066;5.358;2022-10-16T12:37:35;19.42;;;2.33;;
44446;SDS011;30152;52.066;5.358;2022-10-16T12:42:48;10.48;;;1.63;;
44446;SDS011;30152;52.066;5.358;2022-10-16T12:45:33;8.25;;;1.65;;
44446;SDS011;30152;52.066;5.358;2022-10-16T12:48:04;12.15;;;2.35;;
44446;SDS011;30152;52.066;5.358;2022-10-16T12:50:45;26.02;;;2.63;;
44446;SDS011;30152;52.066;5.358;2022-10-16T12:53:18;13.80;;;2.35;;
44446;SDS011;30152;52.066;5.358;2022-10-16T12:55:53;13.30;;;2.42;;
44446;SDS011;30152;52.066;5.358;2022-10-16T12:58:46;12.73;;;1.73;;
44446;SDS011;30152;52.066;5.358;2022-10-16T13:01:34;7.90;;;1.48;;
44446;SDS011;30152;52.066;5.358;2022-10-16T13:09:53;16.73;;;2.33;;
44446;SDS011;30152;52.066;5.358;2022-10-16T13:15:07;14.82;;;2.30;;
44446;SDS011;30152;52.066;5.358;2022-10-16T13:18:27;17.70;;;2.33;;
44446;SDS011;30152;52.066;5.358;2022-10-16T13:20:59;12.27;;;1.90;;
44446;SDS011;30152;52.066;5.358;2022-10-16T13:23:44;14.35;;;1.88;;
44446;SDS011;30152;52.066;5.358;2022-10-16T13:28:50;21.80;;;2.05;;
44446;SDS011;30152;52.066;5.358;2022-10-16T13:31:20;14.45;;;1.90;;
44446;SDS011;30152;52.066;5.358;2022-10-16T13:33:52;9.95;;;1.65;;
44446;SDS011;30152;52.066;5.358;2022-10-16T13:36:24;13.10;;;2.00;;
44446;SDS011;30152;52.066;5.358;2022-10-16T13:41:38;15.45;;;2.72;;
44446;SDS011;30152;52.066;5.358;2022-10-16T13:44:05;13.18;;;2.05;;
44446;SDS011;30152;52.066;5.358;2022-10-16T13:46:31;19.85;;;2.30;;
44446;SDS011;30152;52.066;5.358;2022-10-16T13:49:03;13.80;;;2.08;;
44446;SDS011;30152;52.066;5.358;2022-10-16T13:51:30;15.25;;;2.25;;
44446;SDS011;30152;52.066;5.358;2022-10-16T13:53:57;12.98;;;1.60;;
44446;SDS011;30152;52.066;5.358;2022-10-16T13:56:27;15.75;;;2.25;;
44446;SDS011;30152;52.066;5.358;2022-10-16T13:59:04;12.30;;;1.80;;
44446;SDS011;30152;52.066;5.358;2022-10-16T14:01:47;13.13;;;1.83;;
44446;SDS011;30152;52.066;5.358;2022-10-16T14:04:14;18.25;;;2.20;;
44446;SDS011;30152;52.066;5.358;2022-10-16T14:06:41;10.30;;;2.00;;
44446;SDS011;30152;52.066;5.358;2022-10-16T14:09:20;13.90;;;2.38;;
44446;SDS011;30152;52.066;5.358;2022-10-16T14:11:53;15.52;;;3.17;;
44446;SDS011;30152;52.066;5.358;2022-10-16T14:14:25;10.05;;;2.50;;
44446;SDS011;30152;52.066;5.358;2022-10-16T14:16:54;20.35;;;2.25;;
44446;SDS011;30152;52.066;5.358;2022-10-16T14:19:22;15.82;;;2.10;;
44446;SDS011;30152;52.066;5.358;2022-10-16T14:21:51;13.20;;;1.92;;
44446;SDS011;30152;52.066;5.358;2022-10-16T14:26:55;20.00;;;2.92;;
44446;SDS011;30152;52.066;5.358;2022-10-16T14:29:22;9.75;;;1.70;;
44446;SDS011;30152;52.066;5.358;2022-10-16T14:34:29;12.40;;;1.75;;
44446;SDS011;30152;52.066;5.358;2022-10-16T14:37:00;20.30;;;2.63;;
44446;SDS011;30152;52.066;5.358;2022-10-16T14:39:32;15.10;;;2.33;;
44446;SDS011;30152;52.066;5.358;2022-10-16T14:41:58;12.77;;;2.03;;
44446;SDS011;30152;52.066;5.358;2022-10-16T14:44:28;15.00;;;2.03;;
44446;SDS011;30152;52.066;5.358;2022-10-16T14:46:57;15.87;;;2.27;;
44446;SDS011;30152;52.066;5.358;2022-10-16T14:49:24;17.33;;;2.70;;
44446;SDS011;30152;52.066;5.358;2022-10-16T14:51:51;13.23;;;2.53;;
44446;SDS011;30152;52.066;5.358;2022-10-16T14:54:18;14.00;;;1.75;;
44446;SDS011;30152;52.066;5.358;2022-10-16T14:56:54;11.73;;;1.35;;
44446;SDS011;30152;52.066;5.358;2022-10-16T14:59:25;17.65;;;2.13;;
44446;SDS011;30152;52.066;5.358;2022-10-16T15:01:56;15.63;;;2.15;;
44446;SDS011;30152;52.066;5.358;2022-10-16T15:04:22;15.45;;;2.35;;
44446;SDS011;30152;52.066;5.358;2022-10-16T15:06:47;10.13;;;2.03;;
44446;SDS011;30152;52.066;5.358;2022-10-16T15:09:13;10.98;;;1.88;;
44446;SDS011;30152;52.066;5.358;2022-10-16T15:11:39;12.20;;;2.42;;
44446;SDS011;30152;52.066;5.358;2022-10-16T15:14:05;11.25;;;2.00;;
44446;SDS011;30152;52.066;5.358;2022-10-16T15:16:31;11.35;;;2.17;;
44446;SDS011;30152;52.066;5.358;2022-10-16T15:18:57;18.20;;;2.17;;
44446;SDS011;30152;52.066;5.358;2022-10-16T15:21:30;23.13;;;4.25;;
44446;SDS011;30152;52.066;5.358;2022-10-16T15:23:58;23.63;;;3.10;;
44446;SDS011;30152;52.066;5.358;2022-10-16T15:26:25;19.20;;;4.00;;
44446;SDS011;30152;52.066;5.358;2022-10-16T15:28:52;21.08;;;6.60;;
44446;SDS011;30152;52.066;5.358;2022-10-16T15:31:18;20.20;;;3.53;;
44446;SDS011;30152;52.066;5.358;2022-10-16T15:33:43;25.70;;;5.45;;
44446;SDS011;30152;52.066;5.358;2022-10-16T15:36:12;18.80;;;4.97;;
44446;SDS011;30152;52.066;5.358;2022-10-16T15:38:38;15.88;;;2.92;;
44446;SDS011;30152;52.066;5.358;2022-10-16T15:41:04;16.83;;;2.95;;
44446;SDS011;30152;52.066;5.358;2022-10-16T15:43:30;11.77;;;1.77;;
44446;SDS011;30152;52.066;5.358;2022-10-16T15:48:26;9.25;;;1.55;;
44446;SDS011;30152;52.066;5.358;2022-10-16T15:50:52;19.40;;;2.90;;
44446;SDS011;30152;52.066;5.358;2022-10-16T15:53:18;11.88;;;2.05;;
44446;SDS011;30152;52.066;5.358;2022-10-16T15:55:44;15.90;;;2.47;;
44446;SDS011;30152;52.066;5.358;2022-10-16T15:58:10;13.68;;;2.83;;
44446;SDS011;30152;52.066;5.358;2022-10-16T16:00:36;13.77;;;2.35;;
44446;SDS011;30152;52.066;5.358;2022-10-16T16:03:03;15.32;;;2.60;;
44446;SDS011;30152;52.066;5.358;2022-10-16T16:05:28;13.23;;;2.30;;
44446;SDS011;30152;52.066;5.358;2022-10-16T16:07:54;14.18;;;4.32;;
44446;SDS011;30152;52.066;5.358;2022-10-16T16:10:20;18.13;;;3.22;;
44446;SDS011;30152;52.066;5.358;2022-10-16T16:12:47;14.65;;;2.83;;
44446;SDS011;30152;52.066;5.358;2022-10-16T16:15:19;14.95;;;3.00;;
44446;SDS011;30152;52.066;5.358;2022-10-16T16:17:45;11.82;;;2.97;;
44446;SDS011;30152;52.066;5.358;2022-10-16T16:20:11;18.02;;;2.95;;
44446;SDS011;30152;52.066;5.358;2022-10-16T16:22:37;14.10;;;2.55;;
44446;SDS011;30152;52.066;5.358;2022-10-16T16:25:03;16.88;;;2.50;;
44446;SDS011;30152;52.066;5.358;2022-10-16T16:27:29;19.42;;;3.97;;
44446;SDS011;30152;52.066;5.358;2022-10-16T16:29:58;9.88;;;1.77;;
44446;SDS011;30152;52.066;5.358;2022-10-16T16:32:24;18.30;;;3.20;;
44446;SDS011;30152;52.066;5.358;2022-10-16T16:34:50;13.98;;;2.75;;
44446;SDS011;30152;52.066;5.358;2022-10-16T16:37:16;14.23;;;2.40;;
44446;SDS011;30152;52.066;5.358;2022-10-16T16:39:42;15.00;;;3.08;;
44446;SDS011;30152;52.066;5.358;2022-10-16T16:42:08;12.52;;;4.07;;
44446;SDS011;30152;52.066;5.358;2022-10-16T16:44:35;15.70;;;3.92;;
44446;SDS011;30152;52.066;5.358;2022-10-16T16:47:02;19.38;;;3.58;;
44446;SDS011;30152;52.066;5.358;2022-10-16T16:49:29;13.27;;;2.88;;
44446;SDS011;30152;52.066;5.358;2022-10-16T16:51:55;21.92;;;3.53;;
44446;SDS011;30152;52.066;5.358;2022-10-16T16:54:21;12.02;;;2.53;;
44446;SDS011;30152;52.066;5.358;2022-10-16T16:56:47;18.27;;;3.28;;
44446;SDS011;30152;52.066;5.358;2022-10-16T16:59:14;14.15;;;3.50;;
44446;SDS011;30152;52.066;5.358;2022-10-16T17:01:42;13.82;;;2.60;;
44446;SDS011;30152;52.066;5.358;2022-10-16T17:04:08;14.43;;;2.90;;
44446;SDS011;30152;52.066;5.358;2022-10-16T17:06:35;10.93;;;2.33;;
44446;SDS011;30152;52.066;5.358;2022-10-16T17:09:03;12.27;;;2.47;;
44446;SDS011;30152;52.066;5.358;2022-10-16T17:11:30;13.07;;;3.50;;
44446;SDS011;30152;52.066;5.358;2022-10-16T17:13:56;34.63;;;5.32;;
44446;SDS011;30152;52.066;5.358;2022-10-16T17:16:24;22.17;;;4.90;;
44446;SDS011;30152;52.066;5.358;2022-10-16T17:18:52;25.73;;;6.68;;
44446;SDS011;30152;52.066;5.358;2022-10-16T17:21:18;22.08;;;7.18;;
44446;SDS011;30152;52.066;5.358;2022-10-16T17:23:44;27.70;;;11.50;;
44446;SDS011;30152;52.066;5.358;2022-10-16T17:26:14;32.40;;;12.00;;
44446;SDS011;30152;52.066;5.358;2022-10-16T17:28:41;26.42;;;8.85;;
44446;SDS011;30152;52.066;5.358;2022-10-16T17:31:12;31.10;;;8.07;;
44446;SDS011;30152;52.066;5.358;2022-10-16T17:33:39;21.00;;;7.60;;
44446;SDS011;30152;52.066;5.358;2022-10-16T17:36:05;22.02;;;7.20;;
44446;SDS011;30152;52.066;5.358;2022-10-16T17:38:32;18.95;;;7.20;;
44446;SDS011;30152;52.066;5.358;2022-10-16T17:40:58;21.90;;;6.95;;
44446;SDS011;30152;52.066;5.358;2022-10-16T17:43:24;18.33;;;6.05;;
44446;SDS011;30152;52.066;5.358;2022-10-16T17:45:50;15.98;;;5.90;;
44446;SDS011;30152;52.066;5.358;2022-10-16T17:48:16;24.75;;;6.72;;
44446;SDS011;30152;52.066;5.358;2022-10-16T17:50:42;23.15;;;8.02;;
44446;SDS011;30152;52.066;5.358;2022-10-16T17:53:08;23.42;;;7.88;;
44446;SDS011;30152;52.066;5.358;2022-10-16T17:55:38;18.85;;;7.10;;
44446;SDS011;30152;52.066;5.358;2022-10-16T17:58:04;26.70;;;7.10;;
44446;SDS011;30152;52.066;5.358;2022-10-16T18:00:30;18.58;;;8.07;;
44446;SDS011;30152;52.066;5.358;2022-10-16T18:02:57;21.35;;;7.95;;
44446;SDS011;30152;52.066;5.358;2022-10-16T18:05:22;24.08;;;8.70;;
44446;SDS011;30152;52.066;5.358;2022-10-16T18:07:48;26.35;;;9.40;;
44446;SDS011;30152;52.066;5.358;2022-10-16T18:10:14;25.30;;;9.25;;
44446;SDS011;30152;52.066;5.358;2022-10-16T18:12:40;24.27;;;9.95;;
44446;SDS011;30152;52.066;5.358;2022-10-16T18:15:06;24.70;;;10.30;;
44446;SDS011;30152;52.066;5.358;2022-10-16T18:17:34;31.75;;;12.57;;
44446;SDS011;30152;52.066;5.358;2022-10-16T18:20:02;29.67;;;11.13;;
44446;SDS011;30152;52.066;5.358;2022-10-16T18:22:29;29.75;;;10.35;;
44446;SDS011;30152;52.066;5.358;2022-10-16T18:24:59;25.40;;;8.00;;
44446;SDS011;30152;52.066;5.358;2022-10-16T18:27:28;24.40;;;8.38;;
44446;SDS011;30152;52.066;5.358;2022-10-16T18:29:54;25.05;;;7.57;;
44446;SDS011;30152;52.066;5.358;2022-10-16T18:32:21;21.65;;;6.60;;
44446;SDS011;30152;52.066;5.358;2022-10-16T18:34:47;19.05;;;6.57;;
44446;SDS011;30152;52.066;5.358;2022-10-16T18:37:13;15.88;;;4.85;;
44446;SDS011;30152;52.066;5.358;2022-10-16T18:39:39;23.67;;;4.95;;
44446;SDS011;30152;52.066;5.358;2022-10-16T18:42:06;26.27;;;5.45;;
44446;SDS011;30152;52.066;5.358;2022-10-16T18:44:31;20.10;;;5.13;;
44446;SDS011;30152;52.066;5.358;2022-10-16T18:46:57;20.27;;;6.63;;
44446;SDS011;30152;52.066;5.358;2022-10-16T18:49:23;29.92;;;9.50;;
44446;SDS011;30152;52.066;5.358;2022-10-16T18:51:50;30.13;;;10.02;;
44446;SDS011;30152;52.066;5.358;2022-10-16T18:54:20;29.48;;;12.15;;
44446;SDS011;30152;52.066;5.358;2022-10-16T18:56:46;26.33;;;13.00;;
44446;SDS011;30152;52.066;5.358;2022-10-16T18:59:12;23.58;;;11.38;;
44446;SDS011;30152;52.066;5.358;2022-10-16T19:01:38;23.70;;;11.80;;
44446;SDS011;30152;52.066;5.358;2022-10-16T19:04:05;39.20;;;15.60;;
44446;SDS011;30152;52.066;5.358;2022-10-16T19:06:33;48.40;;;25.65;;
44446;SDS011;30152;52.066;5.358;2022-10-16T19:09:00;48.53;;;24.85;;
44446;SDS011;30152;52.066;5.358;2022-10-16T19:11:26;45.92;;;24.40;;
44446;SDS011;30152;52.066;5.358;2022-10-16T19:13:52;43.15;;;19.60;;
44446;SDS011;30152;52.066;5.358;2022-10-16T19:16:22;37.38;;;19.20;;
44446;SDS011;30152;52.066;5.358;2022-10-16T19:18:51;36.03;;;16.60;;
44446;SDS011;30152;52.066;5.358;2022-10-16T19:21:19;34.08;;;14.77;;
44446;SDS011;30152;52.066;5.358;2022-10-16T19:23:45;30.17;;;13.38;;
44446;SDS011;30152;52.066;5.358;2022-10-16T19:26:12;31.55;;;10.77;;
44446;SDS011;30152;52.066;5.358;2022-10-16T19:28:40;27.08;;;10.30;;
44446;SDS011;30152;52.066;5.358;2022-10-16T19:31:07;24.98;;;9.43;;
44446;SDS011;30152;52.066;5.358;2022-10-16T19:33:37;28.00;;;8.13;;
